sensor_id;sensor_type;location;lat;lon;timestamp;temperature;humidity
24091;DHT22;12272;52.426;17.100;2023-11-19T00:03:59;0.00;99.90
24091;DHT22;12272;52.426;17.100;2023-11-19T00:09:02;0.10;99.90
24091;DHT22;12272;52.426;17.100;2023-11-19T00:14:06;0.20;99.90
24091;DHT22;12272;52.426;17.100;2023-11-19T00:19:11;0.10;99.90
24091;DHT22;12272;52.426;17.100;2023-11-19T00:24:14;0.20;99.90
24091;DHT22;12272;52.426;17.100;2023-11-19T00:29:18;0.30;99.90
24091;DHT22;12272;52.426;17.100;2023-11-19T00:34:22;0.30;99.90
24091;DHT22;12272;52.426;17.100;2023-11-19T00:39:25;0.30;99.90
24091;DHT22;12272;52.426;17.100;2023-11-19T00:44:27;0.30;99.90
24091;DHT22;12272;52.426;17.100;2023-11-19T00:49:29;0.30;99.90
24091;DHT22;12272;52.426;17.100;2023-11-19T00:54:32;0.30;99.90
24091;DHT22;12272;52.426;17.100;2023-11-19T00:59:35;0.30;99.90
24091;DHT22;12272;52.426;17.100;2023-11-19T01:04:38;0.20;99.90
24091;DHT22;12272;52.426;17.100;2023-11-19T01:09:43;0.20;99.90
24091;DHT22;12272;52.426;17.100;2023-11-19T01:14:46;0.40;99.90
24091;DHT22;12272;52.426;17.100;2023-11-19T01:19:48;0.60;99.90
24091;DHT22;12272;52.426;17.100;2023-11-19T01:24:52;0.50;99.90
24091;DHT22;12272;52.426;17.100;2023-11-19T01:29:57;0.40;99.90
24091;DHT22;12272;52.426;17.100;2023-11-19T01:34:59;0.40;99.90
24091;DHT22;12272;52.426;17.100;2023-11-19T01:40:03;0.40;99.90
24091;DHT22;12272;52.426;17.100;2023-11-19T01:45:26;0.30;99.90
24091;DHT22;12272;52.426;17.100;2023-11-19T01:50:30;0.40;99.90
24091;DHT22;12272;52.426;17.100;2023-11-19T01:55:33;0.40;99.90
24091;DHT22;12272;52.426;17.100;2023-11-19T02:00:36;0.40;99.90
24091;DHT22;12272;52.426;17.100;2023-11-19T02:05:39;0.40;99.90
24091;DHT22;12272;52.426;17.100;2023-11-19T02:10:42;0.40;99.90
24091;DHT22;12272;52.426;17.100;2023-11-19T02:15:45;0.40;99.90
24091;DHT22;12272;52.426;17.100;2023-11-19T02:20:51;0.50;99.90
24091;DHT22;12272;52.426;17.100;2023-11-19T02:26:12;0.50;99.90
24091;DHT22;12272;52.426;17.100;2023-11-19T02:31:16;0.60;99.90
24091;DHT22;12272;52.426;17.100;2023-11-19T02:36:19;0.60;99.90
24091;DHT22;12272;52.426;17.100;2023-11-19T02:41:22;0.60;99.90
24091;DHT22;12272;52.426;17.100;2023-11-19T02:46:25;0.60;99.90
24091;DHT22;12272;52.426;17.100;2023-11-19T02:51:28;0.70;99.90
24091;DHT22;12272;52.426;17.100;2023-11-19T02:56:32;0.70;99.90
24091;DHT22;12272;52.426;17.100;2023-11-19T03:01:39;0.80;99.90
24091;DHT22;12272;52.426;17.100;2023-11-19T03:06:46;0.80;99.90
24091;DHT22;12272;52.426;17.100;2023-11-19T03:11:49;0.80;99.90
24091;DHT22;12272;52.426;17.100;2023-11-19T03:16:51;0.80;99.90
24091;DHT22;12272;52.426;17.100;2023-11-19T03:21:54;0.80;99.90
24091;DHT22;12272;52.426;17.100;2023-11-19T03:26:57;0.80;99.90
24091;DHT22;12272;52.426;17.100;2023-11-19T03:32:00;0.90;99.90
24091;DHT22;12272;52.426;17.100;2023-11-19T03:37:02;1.10;99.90
24091;DHT22;12272;52.426;17.100;2023-11-19T03:42:06;1.10;99.90
24091;DHT22;12272;52.426;17.100;2023-11-19T03:47:08;1.20;99.90
24091;DHT22;12272;52.426;17.100;2023-11-19T03:52:11;1.30;99.90
24091;DHT22;12272;52.426;17.100;2023-11-19T03:57:22;1.30;99.90
24091;DHT22;12272;52.426;17.100;2023-11-19T04:02:25;1.50;99.90
24091;DHT22;12272;52.426;17.100;2023-11-19T04:07:31;1.60;99.90
24091;DHT22;12272;52.426;17.100;2023-11-19T04:12:34;1.60;99.90
24091;DHT22;12272;52.426;17.100;2023-11-19T04:17:37;1.80;99.90
24091;DHT22;12272;52.426;17.100;2023-11-19T04:22:40;1.80;99.90
24091;DHT22;12272;52.426;17.100;2023-11-19T04:27:43;1.90;99.90
24091;DHT22;12272;52.426;17.100;2023-11-19T04:32:45;1.60;99.90
24091;DHT22;12272;52.426;17.100;2023-11-19T04:37:48;1.60;99.90
24091;DHT22;12272;52.426;17.100;2023-11-19T04:42:50;1.70;99.90
24091;DHT22;12272;52.426;17.100;2023-11-19T04:47:53;1.80;99.90
24091;DHT22;12272;52.426;17.100;2023-11-19T04:52:55;1.70;99.90
24091;DHT22;12272;52.426;17.100;2023-11-19T04:58:02;1.50;99.90
24091;DHT22;12272;52.426;17.100;2023-11-19T05:03:05;1.50;99.90
24091;DHT22;12272;52.426;17.100;2023-11-19T05:08:09;1.50;99.90
24091;DHT22;12272;52.426;17.100;2023-11-19T05:13:11;1.30;99.90
24091;DHT22;12272;52.426;17.100;2023-11-19T05:18:15;1.40;99.90
24091;DHT22;12272;52.426;17.100;2023-11-19T05:23:17;1.50;99.90
24091;DHT22;12272;52.426;17.100;2023-11-19T05:28:23;1.40;99.90
24091;DHT22;12272;52.426;17.100;2023-11-19T05:33:27;1.40;99.90
24091;DHT22;12272;52.426;17.100;2023-11-19T05:38:30;1.50;99.90
24091;DHT22;12272;52.426;17.100;2023-11-19T05:43:33;1.40;99.90
24091;DHT22;12272;52.426;17.100;2023-11-19T05:48:35;1.50;99.90
24091;DHT22;12272;52.426;17.100;2023-11-19T05:53:38;1.90;99.90
24091;DHT22;12272;52.426;17.100;2023-11-19T05:58:40;2.00;99.90
24091;DHT22;12272;52.426;17.100;2023-11-19T06:03:43;2.00;99.90
24091;DHT22;12272;52.426;17.100;2023-11-19T06:08:46;1.90;99.90
24091;DHT22;12272;52.426;17.100;2023-11-19T06:13:49;2.00;99.90
24091;DHT22;12272;52.426;17.100;2023-11-19T06:18:52;2.10;99.90
24091;DHT22;12272;52.426;17.100;2023-11-19T06:23:56;2.10;99.90
24091;DHT22;12272;52.426;17.100;2023-11-19T06:28:58;2.10;99.90
24091;DHT22;12272;52.426;17.100;2023-11-19T06:34:00;2.20;99.90
24091;DHT22;12272;52.426;17.100;2023-11-19T06:39:03;2.10;99.90
24091;DHT22;12272;52.426;17.100;2023-11-19T06:44:06;2.10;99.90
24091;DHT22;12272;52.426;17.100;2023-11-19T06:49:08;1.90;99.90
24091;DHT22;12272;52.426;17.100;2023-11-19T06:54:11;1.90;99.90
24091;DHT22;12272;52.426;17.100;2023-11-19T06:59:13;2.00;99.90
24091;DHT22;12272;52.426;17.100;2023-11-19T07:04:16;2.10;99.90
24091;DHT22;12272;52.426;17.100;2023-11-19T07:09:19;2.10;99.90
24091;DHT22;12272;52.426;17.100;2023-11-19T07:14:21;2.10;99.90
24091;DHT22;12272;52.426;17.100;2023-11-19T07:19:26;2.20;99.90
24091;DHT22;12272;52.426;17.100;2023-11-19T07:24:28;2.30;99.90
24091;DHT22;12272;52.426;17.100;2023-11-19T07:29:31;2.40;99.90
24091;DHT22;12272;52.426;17.100;2023-11-19T07:34:34;2.40;99.90
24091;DHT22;12272;52.426;17.100;2023-11-19T07:39:36;2.50;99.90
24091;DHT22;12272;52.426;17.100;2023-11-19T07:44:43;2.50;99.90
24091;DHT22;12272;52.426;17.100;2023-11-19T07:49:46;2.40;99.90
24091;DHT22;12272;52.426;17.100;2023-11-19T07:54:48;2.40;99.90
24091;DHT22;12272;52.426;17.100;2023-11-19T07:59:51;2.40;99.90
24091;DHT22;12272;52.426;17.100;2023-11-19T08:04:53;2.50;99.90
24091;DHT22;12272;52.426;17.100;2023-11-19T08:09:57;2.50;99.90
24091;DHT22;12272;52.426;17.100;2023-11-19T08:15:00;2.60;99.90
24091;DHT22;12272;52.426;17.100;2023-11-19T08:20:03;2.70;99.90
24091;DHT22;12272;52.426;17.100;2023-11-19T08:25:07;2.80;99.90
24091;DHT22;12272;52.426;17.100;2023-11-19T08:30:10;2.90;99.90
24091;DHT22;12272;52.426;17.100;2023-11-19T08:35:13;3.20;99.90
24091;DHT22;12272;52.426;17.100;2023-11-19T08:40:16;3.20;99.90
24091;DHT22;12272;52.426;17.100;2023-11-19T08:45:19;3.30;99.90
24091;DHT22;12272;52.426;17.100;2023-11-19T08:50:22;3.40;99.90
24091;DHT22;12272;52.426;17.100;2023-11-19T08:55:25;3.80;99.90
24091;DHT22;12272;52.426;17.100;2023-11-19T09:00:28;3.70;99.90
24091;DHT22;12272;52.426;17.100;2023-11-19T09:05:32;3.60;99.90
24091;DHT22;12272;52.426;17.100;2023-11-19T09:10:34;3.70;99.90
24091;DHT22;12272;52.426;17.100;2023-11-19T09:15:37;3.60;99.90
24091;DHT22;12272;52.426;17.100;2023-11-19T09:20:39;3.40;99.90
24091;DHT22;12272;52.426;17.100;2023-11-19T09:25:42;3.20;99.90
24091;DHT22;12272;52.426;17.100;2023-11-19T09:30:47;3.00;99.90
24091;DHT22;12272;52.426;17.100;2023-11-19T09:35:49;2.90;99.90
24091;DHT22;12272;52.426;17.100;2023-11-19T09:40:52;2.50;99.90
24091;DHT22;12272;52.426;17.100;2023-11-19T09:45:56;2.30;99.90
24091;DHT22;12272;52.426;17.100;2023-11-19T09:51:01;2.20;99.90
24091;DHT22;12272;52.426;17.100;2023-11-19T09:56:05;2.30;99.90
24091;DHT22;12272;52.426;17.100;2023-11-19T10:01:08;2.40;99.90
24091;DHT22;12272;52.426;17.100;2023-11-19T10:06:17;2.50;99.90
24091;DHT22;12272;52.426;17.100;2023-11-19T10:11:21;2.30;99.90
24091;DHT22;12272;52.426;17.100;2023-11-19T10:16:28;2.30;99.90
24091;DHT22;12272;52.426;17.100;2023-11-19T10:21:33;2.20;99.90
24091;DHT22;12272;52.426;17.100;2023-11-19T10:26:36;2.20;99.90
24091;DHT22;12272;52.426;17.100;2023-11-19T10:31:39;2.10;99.90
24091;DHT22;12272;52.426;17.100;2023-11-19T10:36:41;2.00;99.90
24091;DHT22;12272;52.426;17.100;2023-11-19T10:41:44;2.00;99.90
24091;DHT22;12272;52.426;17.100;2023-11-19T10:46:48;1.90;99.90
24091;DHT22;12272;52.426;17.100;2023-11-19T10:51:52;2.00;99.90
24091;DHT22;12272;52.426;17.100;2023-11-19T10:56:58;1.90;99.90
24091;DHT22;12272;52.426;17.100;2023-11-19T11:02:05;1.80;99.90
24091;DHT22;12272;52.426;17.100;2023-11-19T11:07:09;1.90;99.90
24091;DHT22;12272;52.426;17.100;2023-11-19T11:12:12;1.80;99.90
24091;DHT22;12272;52.426;17.100;2023-11-19T11:17:17;1.80;99.90
24091;DHT22;12272;52.426;17.100;2023-11-19T11:22:22;1.70;99.90
24091;DHT22;12272;52.426;17.100;2023-11-19T11:27:48;2.00;99.90
24091;DHT22;12272;52.426;17.100;2023-11-19T11:33:02;2.30;99.90
24091;DHT22;12272;52.426;17.100;2023-11-19T11:38:08;2.30;99.90
24091;DHT22;12272;52.426;17.100;2023-11-19T11:43:43;2.10;99.90
24091;DHT22;12272;52.426;17.100;2023-11-19T11:48:47;2.30;99.90
24091;DHT22;12272;52.426;17.100;2023-11-19T11:53:51;2.20;99.90
24091;DHT22;12272;52.426;17.100;2023-11-19T11:58:54;2.10;99.90
24091;DHT22;12272;52.426;17.100;2023-11-19T12:03:57;2.10;99.90
24091;DHT22;12272;52.426;17.100;2023-11-19T12:09:00;2.10;99.90
24091;DHT22;12272;52.426;17.100;2023-11-19T12:14:04;2.10;99.90
24091;DHT22;12272;52.426;17.100;2023-11-19T12:19:08;2.20;99.90
24091;DHT22;12272;52.426;17.100;2023-11-19T12:24:11;2.30;99.90
24091;DHT22;12272;52.426;17.100;2023-11-19T12:29:14;2.20;99.90
24091;DHT22;12272;52.426;17.100;2023-11-19T12:34:17;2.10;99.90
24091;DHT22;12272;52.426;17.100;2023-11-19T12:39:19;2.10;99.90
24091;DHT22;12272;52.426;17.100;2023-11-19T12:44:22;2.30;99.90
24091;DHT22;12272;52.426;17.100;2023-11-19T12:49:24;2.30;99.90
24091;DHT22;12272;52.426;17.100;2023-11-19T12:54:36;2.30;99.90
24091;DHT22;12272;52.426;17.100;2023-11-19T12:59:39;2.20;99.90
24091;DHT22;12272;52.426;17.100;2023-11-19T13:04:42;2.30;99.90
24091;DHT22;12272;52.426;17.100;2023-11-19T13:09:45;2.20;99.90
24091;DHT22;12272;52.426;17.100;2023-11-19T13:14:47;2.10;99.90
24091;DHT22;12272;52.426;17.100;2023-11-19T13:19:51;2.20;99.90
24091;DHT22;12272;52.426;17.100;2023-11-19T13:24:54;2.30;99.90
24091;DHT22;12272;52.426;17.100;2023-11-19T13:29:57;2.30;99.90
24091;DHT22;12272;52.426;17.100;2023-11-19T13:34:59;2.10;99.90
24091;DHT22;12272;52.426;17.100;2023-11-19T13:40:03;2.10;99.90
24091;DHT22;12272;52.426;17.100;2023-11-19T13:45:10;2.10;99.90
24091;DHT22;12272;52.426;17.100;2023-11-19T13:50:16;2.00;99.90
24091;DHT22;12272;52.426;17.100;2023-11-19T13:55:22;2.00;99.90
24091;DHT22;12272;52.426;17.100;2023-11-19T14:00:25;2.10;99.90
24091;DHT22;12272;52.426;17.100;2023-11-19T14:05:27;2.10;99.90
24091;DHT22;12272;52.426;17.100;2023-11-19T14:10:33;2.10;99.90
24091;DHT22;12272;52.426;17.100;2023-11-19T14:15:35;2.00;99.90
24091;DHT22;12272;52.426;17.100;2023-11-19T14:20:38;2.10;99.90
24091;DHT22;12272;52.426;17.100;2023-11-19T14:25:42;2.10;99.90
24091;DHT22;12272;52.426;17.100;2023-11-19T14:30:45;2.00;99.90
24091;DHT22;12272;52.426;17.100;2023-11-19T14:35:48;1.90;99.90
24091;DHT22;12272;52.426;17.100;2023-11-19T14:40:51;1.90;99.90
24091;DHT22;12272;52.426;17.100;2023-11-19T14:45:53;2.00;99.90
24091;DHT22;12272;52.426;17.100;2023-11-19T14:50:59;1.90;99.90
24091;DHT22;12272;52.426;17.100;2023-11-19T14:56:01;1.90;99.90
24091;DHT22;12272;52.426;17.100;2023-11-19T15:01:05;1.90;99.90
24091;DHT22;12272;52.426;17.100;2023-11-19T15:06:08;2.00;99.90
24091;DHT22;12272;52.426;17.100;2023-11-19T15:11:10;2.00;99.90
24091;DHT22;12272;52.426;17.100;2023-11-19T15:16:15;1.90;99.90
24091;DHT22;12272;52.426;17.100;2023-11-19T15:21:25;1.70;99.90
24091;DHT22;12272;52.426;17.100;2023-11-19T15:26:27;2.00;99.90
24091;DHT22;12272;52.426;17.100;2023-11-19T15:31:30;1.80;99.90
24091;DHT22;12272;52.426;17.100;2023-11-19T15:36:32;2.00;99.90
24091;DHT22;12272;52.426;17.100;2023-11-19T15:41:37;2.50;99.90
24091;DHT22;12272;52.426;17.100;2023-11-19T15:46:40;3.00;99.90
24091;DHT22;12272;52.426;17.100;2023-11-19T15:51:44;3.40;99.90
24091;DHT22;12272;52.426;17.100;2023-11-19T15:56:47;3.50;99.90
24091;DHT22;12272;52.426;17.100;2023-11-19T16:01:51;3.60;99.90
24091;DHT22;12272;52.426;17.100;2023-11-19T16:06:54;3.80;99.90
24091;DHT22;12272;52.426;17.100;2023-11-19T16:11:56;4.20;99.90
24091;DHT22;12272;52.426;17.100;2023-11-19T16:16:59;4.30;99.90
24091;DHT22;12272;52.426;17.100;2023-11-19T16:22:02;4.50;99.90
24091;DHT22;12272;52.426;17.100;2023-11-19T16:27:12;4.30;99.90
24091;DHT22;12272;52.426;17.100;2023-11-19T16:32:17;4.10;99.90
24091;DHT22;12272;52.426;17.100;2023-11-19T16:37:20;4.40;99.90
24091;DHT22;12272;52.426;17.100;2023-11-19T16:42:26;4.60;99.90
24091;DHT22;12272;52.426;17.100;2023-11-19T16:47:28;4.80;99.90
24091;DHT22;12272;52.426;17.100;2023-11-19T16:52:31;4.70;99.90
24091;DHT22;12272;52.426;17.100;2023-11-19T16:57:34;4.80;99.90
24091;DHT22;12272;52.426;17.100;2023-11-19T17:02:37;4.70;99.90
24091;DHT22;12272;52.426;17.100;2023-11-19T17:07:43;4.90;99.90
24091;DHT22;12272;52.426;17.100;2023-11-19T17:12:46;5.00;99.90
24091;DHT22;12272;52.426;17.100;2023-11-19T17:17:48;4.90;99.90
24091;DHT22;12272;52.426;17.100;2023-11-19T17:22:51;4.70;99.90
24091;DHT22;12272;52.426;17.100;2023-11-19T17:27:56;4.30;99.90
24091;DHT22;12272;52.426;17.100;2023-11-19T17:32:59;4.00;99.90
24091;DHT22;12272;52.426;17.100;2023-11-19T17:38:02;4.00;99.90
24091;DHT22;12272;52.426;17.100;2023-11-19T17:43:06;3.70;99.90
24091;DHT22;12272;52.426;17.100;2023-11-19T17:48:09;3.80;99.90
24091;DHT22;12272;52.426;17.100;2023-11-19T17:53:12;3.90;99.90
24091;DHT22;12272;52.426;17.100;2023-11-19T17:58:14;4.00;99.90
24091;DHT22;12272;52.426;17.100;2023-11-19T18:03:19;3.80;99.90
24091;DHT22;12272;52.426;17.100;2023-11-19T18:08:22;3.90;99.90
24091;DHT22;12272;52.426;17.100;2023-11-19T18:13:25;3.90;99.90
24091;DHT22;12272;52.426;17.100;2023-11-19T18:18:27;4.00;99.90
24091;DHT22;12272;52.426;17.100;2023-11-19T18:23:30;4.50;99.90
24091;DHT22;12272;52.426;17.100;2023-11-19T18:28:32;4.60;99.90
24091;DHT22;12272;52.426;17.100;2023-11-19T18:33:35;5.40;99.90
24091;DHT22;12272;52.426;17.100;2023-11-19T18:38:38;6.90;99.90
24091;DHT22;12272;52.426;17.100;2023-11-19T18:43:45;7.60;99.90
24091;DHT22;12272;52.426;17.100;2023-11-19T18:48:47;8.20;99.90
24091;DHT22;12272;52.426;17.100;2023-11-19T18:53:50;8.90;99.90
24091;DHT22;12272;52.426;17.100;2023-11-19T18:58:53;9.50;99.90
24091;DHT22;12272;52.426;17.100;2023-11-19T19:03:56;10.00;99.90
24091;DHT22;12272;52.426;17.100;2023-11-19T19:08:59;10.20;99.90
24091;DHT22;12272;52.426;17.100;2023-11-19T19:14:01;10.60;99.90
24091;DHT22;12272;52.426;17.100;2023-11-19T19:19:06;10.80;99.90
24091;DHT22;12272;52.426;17.100;2023-11-19T19:24:08;10.80;99.90
24091;DHT22;12272;52.426;17.100;2023-11-19T19:29:12;11.00;99.90
24091;DHT22;12272;52.426;17.100;2023-11-19T19:34:15;11.00;99.90
24091;DHT22;12272;52.426;17.100;2023-11-19T19:39:17;10.90;99.90
24091;DHT22;12272;52.426;17.100;2023-11-19T19:44:20;11.20;99.90
24091;DHT22;12272;52.426;17.100;2023-11-19T19:49:24;11.30;99.90
24091;DHT22;12272;52.426;17.100;2023-11-19T19:54:28;11.50;99.90
24091;DHT22;12272;52.426;17.100;2023-11-19T19:59:32;11.60;99.90
24091;DHT22;12272;52.426;17.100;2023-11-19T20:04:36;11.60;99.90
24091;DHT22;12272;52.426;17.100;2023-11-19T20:09:59;11.80;99.90
24091;DHT22;12272;52.426;17.100;2023-11-19T20:15:01;10.70;99.90
24091;DHT22;12272;52.426;17.100;2023-11-19T20:20:05;10.30;99.90
24091;DHT22;12272;52.426;17.100;2023-11-19T20:25:09;9.50;99.90
24091;DHT22;12272;52.426;17.100;2023-11-19T20:30:13;9.10;99.90
24091;DHT22;12272;52.426;17.100;2023-11-19T20:35:16;8.80;99.90
24091;DHT22;12272;52.426;17.100;2023-11-19T20:40:18;10.00;99.90
24091;DHT22;12272;52.426;17.100;2023-11-19T20:45:21;10.80;99.90
24091;DHT22;12272;52.426;17.100;2023-11-19T20:50:24;11.40;99.90
24091;DHT22;12272;52.426;17.100;2023-11-19T20:55:28;11.90;99.90
24091;DHT22;12272;52.426;17.100;2023-11-19T21:00:34;12.50;99.90
24091;DHT22;12272;52.426;17.100;2023-11-19T21:05:36;12.50;99.90
24091;DHT22;12272;52.426;17.100;2023-11-19T21:10:40;12.30;99.90
24091;DHT22;12272;52.426;17.100;2023-11-19T21:15:43;11.90;99.90
24091;DHT22;12272;52.426;17.100;2023-11-19T21:20:59;12.20;99.90
24091;DHT22;12272;52.426;17.100;2023-11-19T21:26:02;12.50;99.90
24091;DHT22;12272;52.426;17.100;2023-11-19T21:31:06;12.80;99.90
24091;DHT22;12272;52.426;17.100;2023-11-19T21:36:09;12.80;99.90
24091;DHT22;12272;52.426;17.100;2023-11-19T21:41:13;13.30;99.90
24091;DHT22;12272;52.426;17.100;2023-11-19T21:46:15;13.40;99.90
24091;DHT22;12272;52.426;17.100;2023-11-19T21:51:18;13.30;99.90
24091;DHT22;12272;52.426;17.100;2023-11-19T21:56:20;12.90;99.90
24091;DHT22;12272;52.426;17.100;2023-11-19T22:01:23;13.30;99.90
24091;DHT22;12272;52.426;17.100;2023-11-19T22:06:25;13.20;99.90
24091;DHT22;12272;52.426;17.100;2023-11-19T22:11:28;13.20;99.90
24091;DHT22;12272;52.426;17.100;2023-11-19T22:16:31;13.00;99.90
24091;DHT22;12272;52.426;17.100;2023-11-19T22:21:33;13.00;99.90
24091;DHT22;12272;52.426;17.100;2023-11-19T22:26:37;12.90;99.90
24091;DHT22;12272;52.426;17.100;2023-11-19T22:31:39;12.70;99.90
24091;DHT22;12272;52.426;17.100;2023-11-19T22:36:42;12.40;99.90
24091;DHT22;12272;52.426;17.100;2023-11-19T22:41:45;12.40;99.90
24091;DHT22;12272;52.426;17.100;2023-11-19T22:46:48;12.80;99.90
24091;DHT22;12272;52.426;17.100;2023-11-19T22:51:50;12.60;99.90
24091;DHT22;12272;52.426;17.100;2023-11-19T22:56:53;12.70;99.90
24091;DHT22;12272;52.426;17.100;2023-11-19T23:01:55;12.60;99.90
24091;DHT22;12272;52.426;17.100;2023-11-19T23:06:58;12.70;99.90
24091;DHT22;12272;52.426;17.100;2023-11-19T23:12:01;12.90;99.90
24091;DHT22;12272;52.426;17.100;2023-11-19T23:17:03;13.10;99.90
24091;DHT22;12272;52.426;17.100;2023-11-19T23:22:06;13.30;99.90
24091;DHT22;12272;52.426;17.100;2023-11-19T23:27:08;13.20;99.90
24091;DHT22;12272;52.426;17.100;2023-11-19T23:32:17;13.10;99.90
24091;DHT22;12272;52.426;17.100;2023-11-19T23:37:19;13.30;99.90
24091;DHT22;12272;52.426;17.100;2023-11-19T23:42:22;13.50;99.90
24091;DHT22;12272;52.426;17.100;2023-11-19T23:47:24;13.40;99.90
24091;DHT22;12272;52.426;17.100;2023-11-19T23:52:27;13.10;99.90
24091;DHT22;12272;52.426;17.100;2023-11-19T23:57:29;13.40;99.90
